createdAt,value
2023-04-11T00:01:55.990Z,9.20
2023-04-11T00:05:58.941Z,9.20
2023-04-11T00:10:00.915Z,9.30
2023-04-11T00:14:05.445Z,9.30
2023-04-11T00:18:07.976Z,9.30
2023-04-11T00:22:11.458Z,9.40
2023-04-11T00:26:13.389Z,9.30
2023-04-11T00:30:15.502Z,9.40
2023-04-11T00:34:18.819Z,9.40
2023-04-11T00:38:21.210Z,9.40
2023-04-11T00:42:23.398Z,9.30
2023-04-11T00:46:26.442Z,9.30
2023-04-11T00:50:28.860Z,9.30
2023-04-11T00:54:31.539Z,9.30
2023-04-11T00:58:34.563Z,9.40
2023-04-11T01:02:37.943Z,9.30
2023-04-11T01:06:39.939Z,9.30
2023-04-11T01:10:42.338Z,9.30
2023-04-11T01:14:47.768Z,9.30
2023-04-11T01:18:49.833Z,9.00
2023-04-11T01:22:52.537Z,8.90
2023-04-11T01:26:54.892Z,8.90
2023-04-11T01:30:57.778Z,9.20
2023-04-11T01:35:00.154Z,9.40
2023-04-11T01:39:02.080Z,9.60
2023-04-11T01:43:04.530Z,9.80
2023-04-11T01:47:06.494Z,9.90
2023-04-11T01:51:08.519Z,9.90
2023-04-11T01:55:10.812Z,9.90
2023-04-11T01:59:12.734Z,10.00
2023-04-11T02:03:14.690Z,10.00
2023-04-11T02:07:16.802Z,10.00
2023-04-11T02:11:18.950Z,9.80
2023-04-11T02:15:24.153Z,9.80
2023-04-11T02:19:26.322Z,9.90
2023-04-11T02:23:28.743Z,9.70
2023-04-11T02:27:31.436Z,9.60
2023-04-11T02:31:33.328Z,9.60
2023-04-11T02:35:35.525Z,9.50
2023-04-11T02:39:38.341Z,9.50
2023-04-11T02:43:40.491Z,9.50
2023-04-11T02:47:42.804Z,9.50
2023-04-11T02:51:45.905Z,9.50
2023-04-11T02:55:48.194Z,9.50
2023-04-11T02:59:51.080Z,9.40
2023-04-11T03:04:00.228Z,9.30
2023-04-11T03:08:12.386Z,9.40
2023-04-11T03:12:20.236Z,9.40
2023-04-11T03:16:29.660Z,9.40
2023-04-11T03:20:32.241Z,9.30
2023-04-11T03:24:34.648Z,9.30
2023-04-11T03:28:36.631Z,9.30
2023-04-11T03:32:38.720Z,9.30
2023-04-11T03:36:40.814Z,9.20
2023-04-11T03:40:42.751Z,8.90
2023-04-11T03:44:48.714Z,8.80
2023-04-11T03:48:50.735Z,8.20
2023-04-11T03:52:54.632Z,8.70
2023-04-11T03:56:57.177Z,9.00
2023-04-11T04:01:00.630Z,9.00
2023-04-11T04:05:03.191Z,9.10
2023-04-11T04:09:09.591Z,8.90
2023-04-11T04:13:24.493Z,9.00
2023-04-11T04:17:35.386Z,8.90
2023-04-11T04:21:43.265Z,9.00
2023-04-11T04:25:51.057Z,8.70
2023-04-11T04:30:01.420Z,8.00
2023-04-11T04:34:21.670Z,8.10
2023-04-11T04:38:26.014Z,8.30
2023-04-11T04:42:30.263Z,8.10
2023-04-11T04:46:37.939Z,8.50
2023-04-11T04:50:41.466Z,8.70
2023-04-11T04:54:43.534Z,8.30
2023-04-11T04:58:47.146Z,8.50
2023-04-11T05:02:50.364Z,8.60
2023-04-11T05:06:52.720Z,8.90
2023-04-11T05:10:55.405Z,9.00
2023-04-11T05:14:57.773Z,9.00
2023-04-11T05:19:02.066Z,9.00
2023-04-11T05:23:05.905Z,8.70
2023-04-11T05:27:07.791Z,8.90
2023-04-11T05:31:11.704Z,8.10
2023-04-11T05:35:14.109Z,7.70
2023-04-11T05:39:34.338Z,8.00
2023-04-11T05:43:36.631Z,8.40
2023-04-11T05:47:38.826Z,7.90
2023-04-11T05:51:41.061Z,7.60
2023-04-11T05:55:43.014Z,7.30
2023-04-11T05:59:44.762Z,6.00
2023-04-11T06:03:47.135Z,5.00
2023-04-11T06:07:49.276Z,4.90
2023-04-11T06:11:51.235Z,5.00
2023-04-11T06:15:53.400Z,4.80
2023-04-11T06:19:55.481Z,4.60
2023-04-11T06:23:57.632Z,4.30
2023-04-11T06:27:59.808Z,4.60
2023-04-11T06:32:01.752Z,5.30
2023-04-11T06:36:05.984Z,4.60
2023-04-11T06:40:09.020Z,4.40
2023-04-11T06:44:10.942Z,4.60
2023-04-11T06:48:13.072Z,3.90
2023-04-11T06:52:15.593Z,5.40
2023-04-11T06:56:17.462Z,5.70
2023-04-11T07:00:19.897Z,5.70
2023-04-11T07:04:22.167Z,6.00
2023-04-11T07:08:24.264Z,6.30
2023-04-11T07:12:26.396Z,6.60
2023-04-11T07:16:28.934Z,6.90
2023-04-11T07:20:34.465Z,6.40
2023-04-11T07:24:37.099Z,6.40
2023-04-11T07:28:40.572Z,6.20
2023-04-11T07:32:42.610Z,6.30
2023-04-11T07:36:44.704Z,6.90
2023-04-11T07:40:46.536Z,6.10
2023-04-11T07:44:48.307Z,5.50
2023-04-11T07:48:50.236Z,5.90
2023-04-11T07:52:52.229Z,6.30
2023-04-11T07:56:54.387Z,6.30
2023-04-11T08:00:56.249Z,5.80
2023-04-11T08:04:58.400Z,5.10
2023-04-11T08:09:00.973Z,5.50
2023-04-11T08:13:03.147Z,6.20
2023-04-11T08:17:12.099Z,6.00
2023-04-11T08:21:19.796Z,5.40
2023-04-11T08:25:24.994Z,6.10
2023-04-11T08:29:26.924Z,5.80
2023-04-11T08:33:28.871Z,5.50
2023-04-11T08:37:31.038Z,5.90
2023-04-11T08:41:34.816Z,5.70
2023-04-11T08:45:36.822Z,5.90
2023-04-11T08:49:38.768Z,5.70
2023-04-11T08:53:41.957Z,5.60
2023-04-11T08:57:44.077Z,6.10
2023-04-11T09:01:46.325Z,6.80
2023-04-11T09:05:48.538Z,7.40
2023-04-11T09:09:50.647Z,6.80
2023-04-11T09:14:11.701Z,7.30
2023-04-11T09:18:37.497Z,6.80
2023-04-11T09:22:40.508Z,6.80
2023-04-11T09:26:44.023Z,6.50
2023-04-11T09:30:52.233Z,6.70
2023-04-11T09:35:10.385Z,6.70
2023-04-11T09:39:19.536Z,7.00
2023-04-11T09:43:21.472Z,6.40
2023-04-11T09:47:23.663Z,6.80
2023-04-11T09:55:32.561Z,6.70
2023-04-11T09:59:38.941Z,6.20
2023-04-11T10:03:41.778Z,6.30
2023-04-11T10:08:03.864Z,6.80
2023-04-11T10:12:06.050Z,6.30
2023-04-11T10:16:18.737Z,6.80
2023-04-11T10:20:36.185Z,7.00
2023-04-11T10:24:38.894Z,6.60
2023-04-11T10:28:40.893Z,6.80
2023-04-11T10:33:11.786Z,7.00
2023-04-11T10:37:13.533Z,6.80
2023-04-11T10:41:19.016Z,8.10
2023-04-11T10:45:27.853Z,7.80
2023-04-11T10:49:34.168Z,7.30
2023-04-11T10:53:37.430Z,7.50
2023-04-11T10:58:08.323Z,7.00
2023-04-11T11:02:10.808Z,7.00
2023-04-11T11:06:14.469Z,7.90
2023-04-11T11:10:34.348Z,8.00
2023-04-11T11:14:37.485Z,8.00
2023-04-11T11:18:39.894Z,7.60
2023-04-11T11:22:41.724Z,7.60
2023-04-11T11:26:44.346Z,7.30
2023-04-11T11:30:56.778Z,7.30
2023-04-11T11:34:58.959Z,7.60
2023-04-11T11:39:01.162Z,7.80
2023-04-11T11:43:03.120Z,8.40
2023-04-11T11:47:12.305Z,9.00
2023-04-11T11:51:14.570Z,8.80
2023-04-11T11:55:19.526Z,8.80
2023-04-11T11:59:28.168Z,8.20
2023-04-11T12:03:30.264Z,7.80
2023-04-11T12:07:36.935Z,7.10
2023-04-11T12:11:39.903Z,7.70
2023-04-11T12:15:45.937Z,7.90
2023-04-11T12:19:47.940Z,7.70
2023-04-11T12:23:49.993Z,7.80
2023-04-11T12:27:52.010Z,8.60
2023-04-11T12:31:54.138Z,8.30
2023-04-11T12:35:56.176Z,8.20
2023-04-11T12:39:57.951Z,6.80
2023-04-11T12:44:02.192Z,7.40
2023-04-11T12:48:04.456Z,7.60
2023-04-11T12:52:09.320Z,8.00
2023-04-11T12:56:11.294Z,7.80
2023-04-11T13:00:13.849Z,7.60
2023-04-11T13:04:15.995Z,7.90
2023-04-11T13:08:17.931Z,8.60
2023-04-11T13:12:19.948Z,9.10
2023-04-11T13:16:21.992Z,8.80
2023-04-11T13:20:23.811Z,8.60
2023-04-11T13:24:26.793Z,8.30
2023-04-11T13:28:29.785Z,8.10
2023-04-11T13:32:32.255Z,7.50
2023-04-11T13:36:34.279Z,7.50
2023-04-11T13:40:38.202Z,8.20
2023-04-11T13:44:39.959Z,9.00
2023-04-11T13:48:41.877Z,8.60
2023-04-11T13:52:43.988Z,8.90
2023-04-11T13:56:46.029Z,9.30
2023-04-11T14:00:50.352Z,9.70
2023-04-11T14:04:53.403Z,9.70
2023-04-11T14:08:55.529Z,8.80
2023-04-11T14:12:57.540Z,9.00
2023-04-11T14:16:59.725Z,8.70
2023-04-11T14:21:01.979Z,8.30
2023-04-11T14:25:05.490Z,7.90
2023-04-11T14:29:07.434Z,8.10
2023-04-11T14:33:09.550Z,8.10
2023-04-11T14:37:11.783Z,8.20
2023-04-11T14:41:13.706Z,8.40
2023-04-11T14:45:15.735Z,8.00
2023-04-11T14:49:18.002Z,8.50
2023-04-11T14:53:20.064Z,8.30
2023-04-11T14:57:22.862Z,8.00
2023-04-11T15:01:25.143Z,8.50
2023-04-11T15:05:28.196Z,8.30
2023-04-11T15:09:30.362Z,8.70
2023-04-11T15:13:32.990Z,8.80
2023-04-11T15:17:46.111Z,9.00
2023-04-11T15:21:48.577Z,9.50
2023-04-11T15:26:03.778Z,9.30
2023-04-11T15:30:06.509Z,9.80
2023-04-11T15:34:08.530Z,9.30
2023-04-11T15:38:11.751Z,9.30
2023-04-11T15:42:13.792Z,9.20
2023-04-11T15:46:16.283Z,9.40
2023-04-11T15:50:18.452Z,8.90
2023-04-11T15:54:20.692Z,9.10
2023-04-11T15:58:22.577Z,9.30
2023-04-11T16:02:24.633Z,9.70
2023-04-11T16:06:27.394Z,9.40
2023-04-11T16:10:30.404Z,9.10
2023-04-11T16:14:32.461Z,8.50
2023-04-11T16:18:34.362Z,8.30
2023-04-11T16:22:36.925Z,8.40
2023-04-11T16:26:38.814Z,8.60
2023-04-11T16:30:40.792Z,7.90
2023-04-11T16:34:42.605Z,8.40
2023-04-11T16:38:44.618Z,8.70
2023-04-11T16:42:46.566Z,9.10
2023-04-11T16:46:48.548Z,8.60
2023-04-11T16:50:50.703Z,8.90
2023-04-11T16:54:52.810Z,9.00
2023-04-11T16:58:54.876Z,9.90
2023-04-11T17:02:57.268Z,10.00
2023-04-11T17:06:59.263Z,9.60
2023-04-11T17:11:09.242Z,8.80
2023-04-11T17:15:11.708Z,9.10
2023-04-11T17:19:13.880Z,9.50
2023-04-11T17:23:15.910Z,9.90
2023-04-11T17:27:18.002Z,9.40
2023-04-11T17:31:20.608Z,9.50
2023-04-11T17:35:22.662Z,9.60
2023-04-11T17:39:24.612Z,10.00
2023-04-11T17:43:26.551Z,9.80
2023-04-11T17:47:28.594Z,9.90
2023-04-11T17:51:31.538Z,9.90
2023-04-11T17:55:33.608Z,9.90
2023-04-11T17:59:35.446Z,9.90
2023-04-11T18:03:38.522Z,9.90
2023-04-11T18:07:41.910Z,9.90
2023-04-11T18:11:44.193Z,9.60
2023-04-11T18:15:46.315Z,9.50
2023-04-11T18:19:48.974Z,9.50
2023-04-11T18:23:51.115Z,9.60
2023-04-11T18:27:53.290Z,9.50
2023-04-11T18:31:56.230Z,9.40
2023-04-11T18:35:58.192Z,9.30
2023-04-11T18:40:01.316Z,9.10
2023-04-11T18:44:05.189Z,9.00
2023-04-11T18:48:07.985Z,8.90
2023-04-11T18:52:11.413Z,8.70
2023-04-11T18:56:14.160Z,8.70
2023-04-11T19:00:19.237Z,8.50
2023-04-11T19:04:23.079Z,8.50
2023-04-11T19:08:25.287Z,8.40
2023-04-11T19:12:27.329Z,8.20
2023-04-11T19:16:30.635Z,8.00
2023-04-11T19:20:32.722Z,7.70
2023-04-11T19:24:34.834Z,7.40
2023-04-11T19:28:36.750Z,7.30
2023-04-11T19:32:41.025Z,7.20
2023-04-11T19:36:43.307Z,7.20
2023-04-11T19:40:45.339Z,7.30
2023-04-11T19:44:48.346Z,7.10
2023-04-11T19:48:51.491Z,7.10
2023-04-11T19:52:58.322Z,7.20
2023-04-11T19:57:00.670Z,6.90
2023-04-11T20:01:03.144Z,6.90
2023-04-11T20:05:06.210Z,7.00
2023-04-11T20:09:08.140Z,6.80
2023-04-11T20:13:10.192Z,6.70
2023-04-11T20:17:12.252Z,6.80
2023-04-11T20:21:15.079Z,6.80
2023-04-11T20:25:17.316Z,6.90
2023-04-11T20:29:21.205Z,6.80
2023-04-11T20:33:23.228Z,6.50
2023-04-11T20:37:25.166Z,6.30
2023-04-11T20:41:27.377Z,6.30
2023-04-11T20:45:30.690Z,6.30
2023-04-11T20:49:32.801Z,6.50
2023-04-11T20:53:35.642Z,6.60
2023-04-11T20:57:37.520Z,6.60
2023-04-11T21:01:40.498Z,6.00
2023-04-11T21:05:46.650Z,5.70
2023-04-11T21:09:49.513Z,5.70
2023-04-11T21:13:51.630Z,5.50
2023-04-11T21:17:53.681Z,5.90
2023-04-11T21:21:57.281Z,6.00
2023-04-11T21:25:59.212Z,6.20
2023-04-11T21:30:01.118Z,5.60
2023-04-11T21:34:03.166Z,5.20
2023-04-11T21:38:05.002Z,5.50
2023-04-11T21:42:06.878Z,5.80
2023-04-11T21:46:08.908Z,6.00
2023-04-11T21:50:11.571Z,5.80
2023-04-11T21:54:13.707Z,5.60
2023-04-11T21:58:25.845Z,5.40
2023-04-11T22:02:30.878Z,5.40
2023-04-11T22:06:32.957Z,5.80
2023-04-11T22:10:47.339Z,6.00
2023-04-11T22:14:52.774Z,6.10
2023-04-11T22:18:54.807Z,6.10
2023-04-11T22:22:57.656Z,6.10
2023-04-11T22:27:04.018Z,6.10
2023-04-11T22:31:06.233Z,6.10
2023-04-11T22:35:09.332Z,6.30
2023-04-11T22:39:11.192Z,6.40
2023-04-11T22:43:13.057Z,6.30
2023-04-11T22:47:16.522Z,6.30
2023-04-11T22:51:19.021Z,6.20
2023-04-11T22:55:21.175Z,6.20
2023-04-11T22:59:26.378Z,6.30
2023-04-11T23:03:28.465Z,6.30
2023-04-11T23:07:32.824Z,6.10
2023-04-11T23:11:34.914Z,5.70
2023-04-11T23:15:37.445Z,5.80
2023-04-11T23:19:39.375Z,5.70
2023-04-11T23:23:41.422Z,5.40
2023-04-11T23:27:44.570Z,5.40
2023-04-11T23:31:46.532Z,5.80
2023-04-11T23:35:48.737Z,5.90
2023-04-11T23:39:50.509Z,6.10
2023-04-11T23:43:52.265Z,6.00
2023-04-11T23:47:54.138Z,5.90
2023-04-11T23:51:56.541Z,5.70
2023-04-11T23:55:58.530Z,5.50
